createdAt,value
2023-05-24T00:02:52.554Z,101981.98
2023-05-24T00:05:21.016Z,101974.48
2023-05-24T00:07:40.776Z,101971.02
2023-05-24T00:10:07.279Z,101971.14
2023-05-24T00:12:33.117Z,101971.45
2023-05-24T00:14:52.734Z,101972.27
2023-05-24T00:17:20.125Z,101976.90
2023-05-24T00:19:41.356Z,101974.27
2023-05-24T00:22:15.297Z,101969.45
2023-05-24T00:24:41.905Z,101967.69
2023-05-24T00:27:06.795Z,101967.83
2023-05-24T00:29:27.145Z,101966.59
2023-05-24T00:31:58.855Z,101964.30
2023-05-24T00:34:25.179Z,101960.61
2023-05-24T00:36:44.371Z,101959.89
2023-05-24T00:39:04.110Z,101962.92
2023-05-24T00:41:23.698Z,101959.84
2023-05-24T00:44:01.327Z,101956.89
2023-05-24T00:46:36.670Z,101956.02
2023-05-24T00:49:03.797Z,101951.23
2023-05-24T00:51:27.557Z,101946.54
2023-05-24T00:54:02.886Z,101943.27
2023-05-24T00:56:27.357Z,101942.80
2023-05-24T00:58:56.244Z,101939.17
2023-05-24T01:01:32.078Z,101934.73
2023-05-24T01:03:56.501Z,101930.73
2023-05-24T01:06:23.040Z,101931.95
2023-05-24T01:09:20.240Z,101931.35
2023-05-24T01:12:07.442Z,101927.59
2023-05-24T01:14:39.592Z,101925.23
2023-05-24T01:17:19.101Z,101926.77
2023-05-24T01:20:07.906Z,101928.73
2023-05-24T01:23:05.016Z,101925.86
2023-05-24T01:25:49.580Z,101924.42
2023-05-24T01:28:08.574Z,101931.02
2023-05-24T01:30:41.602Z,101926.29
2023-05-24T01:33:11.266Z,101924.50
2023-05-24T01:35:45.126Z,101922.66
2023-05-24T01:38:12.118Z,101919.94
2023-05-24T01:40:48.057Z,101926.02
2023-05-24T01:43:20.030Z,101926.59
2023-05-24T01:45:58.453Z,101932.86
2023-05-24T01:48:23.000Z,101935.45
2023-05-24T01:50:56.642Z,101935.89
2023-05-24T01:53:21.549Z,101928.30
2023-05-24T01:55:47.333Z,101926.98
2023-05-24T01:58:17.319Z,101926.24
2023-05-24T02:00:50.956Z,101923.59
2023-05-24T02:03:20.161Z,101923.60
2023-05-24T02:05:45.830Z,101923.65
2023-05-24T02:08:21.196Z,101922.87
2023-05-24T02:10:55.792Z,101919.42
2023-05-24T02:13:21.471Z,101917.05
2023-05-24T02:15:57.031Z,101915.21
2023-05-24T02:18:25.724Z,101916.12
2023-05-24T02:20:54.402Z,101916.91
2023-05-24T02:23:25.362Z,101918.27
2023-05-24T02:26:00.049Z,101919.44
2023-05-24T02:28:27.321Z,101919.98
2023-05-24T02:31:01.791Z,101921.17
2023-05-24T02:33:33.002Z,101917.39
2023-05-24T02:36:05.577Z,101915.59
2023-05-24T02:38:30.560Z,101913.58
2023-05-24T02:40:59.053Z,101914.08
2023-05-24T02:43:21.913Z,101912.66
2023-05-24T02:45:47.435Z,101909.79
2023-05-24T02:48:21.841Z,101908.92
2023-05-24T02:50:48.622Z,101910.00
2023-05-24T02:53:22.790Z,101907.77
2023-05-24T02:55:45.160Z,101906.63
2023-05-24T02:58:21.051Z,101911.14
2023-05-24T03:00:48.753Z,101912.11
2023-05-24T03:03:26.235Z,101915.14
2023-05-24T03:06:00.148Z,101908.07
2023-05-24T03:08:21.396Z,101908.20
2023-05-24T03:10:56.502Z,101909.64
2023-05-24T03:13:30.998Z,101908.64
2023-05-24T03:15:58.786Z,101909.17
2023-05-24T03:18:36.468Z,101902.31
2023-05-24T03:21:05.598Z,101904.56
2023-05-24T03:23:34.297Z,101899.79
2023-05-24T03:26:08.650Z,101899.52
2023-05-24T03:28:45.522Z,101904.48
2023-05-24T03:31:13.779Z,101903.14
2023-05-24T03:33:47.321Z,101906.77
2023-05-24T03:36:22.364Z,101909.33
2023-05-24T03:38:56.090Z,101909.06
2023-05-24T03:41:25.681Z,101909.96
2023-05-24T03:43:59.583Z,101906.52
2023-05-24T03:46:35.112Z,101908.41
2023-05-24T03:49:04.912Z,101910.12
2023-05-24T03:51:31.983Z,101917.80
2023-05-24T03:54:06.108Z,101914.60
2023-05-24T03:56:40.670Z,101915.50
2023-05-24T03:59:15.140Z,101920.36
2023-05-24T04:01:48.671Z,101919.61
2023-05-24T04:04:24.433Z,101919.00
2023-05-24T04:06:44.584Z,101918.23
2023-05-24T04:09:19.178Z,101920.61
2023-05-24T04:11:46.523Z,101926.94
2023-05-24T04:14:13.305Z,101929.42
2023-05-24T04:16:42.812Z,101929.41
2023-05-24T04:19:08.626Z,101927.21
2023-05-24T04:21:36.485Z,101927.05
2023-05-24T04:24:05.124Z,101928.47
2023-05-24T04:26:39.445Z,101929.75
2023-05-24T04:29:14.222Z,101929.64
2023-05-24T04:31:50.172Z,101925.19
2023-05-24T04:34:18.804Z,101929.02
2023-05-24T04:36:53.708Z,101926.45
2023-05-24T04:39:20.391Z,101926.21
2023-05-24T04:41:52.120Z,101923.91
2023-05-24T04:44:27.496Z,101928.02
2023-05-24T04:46:54.667Z,101926.96
2023-05-24T04:49:18.309Z,101929.34
2023-05-24T04:51:52.913Z,101931.77
2023-05-24T04:54:22.821Z,101935.58
2023-05-24T04:56:46.689Z,101934.11
2023-05-24T04:59:15.853Z,101935.54
2023-05-24T05:01:51.016Z,101938.79
2023-05-24T05:04:18.652Z,101938.44
2023-05-24T05:06:51.679Z,101935.93
2023-05-24T05:09:25.908Z,101935.11
2023-05-24T05:11:49.494Z,101936.77
2023-05-24T05:14:14.881Z,101937.33
2023-05-24T05:16:49.779Z,101936.42
2023-05-24T05:19:24.064Z,101943.80
2023-05-24T05:21:59.227Z,101944.48
2023-05-24T05:24:32.758Z,101948.36
2023-05-24T05:27:02.662Z,101947.79
2023-05-24T05:29:36.996Z,101942.39
2023-05-24T05:32:13.357Z,101944.75
2023-05-24T05:34:48.637Z,101946.59
2023-05-24T05:37:23.617Z,101943.27
2023-05-24T05:39:51.564Z,101938.37
2023-05-24T05:42:15.266Z,101941.09
2023-05-24T05:44:53.865Z,101939.14
2023-05-24T05:47:29.387Z,101935.13
2023-05-24T05:49:59.439Z,101930.89
2023-05-24T05:52:26.261Z,101927.18
2023-05-24T05:55:01.510Z,101924.32
2023-05-24T05:57:34.025Z,101924.85
2023-05-24T06:00:11.231Z,101925.02
2023-05-24T06:02:47.488Z,101924.25
2023-05-24T06:05:14.652Z,101921.08
2023-05-24T06:07:45.532Z,101921.39
2023-05-24T06:10:14.872Z,101924.79
2023-05-24T06:12:41.696Z,101922.80
2023-05-24T06:15:17.127Z,101920.44
2023-05-24T06:17:51.169Z,101919.33
2023-05-24T06:20:26.209Z,101913.96
2023-05-24T06:22:52.403Z,101914.66
2023-05-24T06:25:22.244Z,101913.73
2023-05-24T06:27:56.154Z,101911.74
2023-05-24T06:30:18.555Z,101910.95
2023-05-24T06:32:47.207Z,101908.57
2023-05-24T06:35:22.501Z,101911.48
2023-05-24T06:37:52.569Z,101913.39
2023-05-24T06:40:26.957Z,101914.78
2023-05-24T06:42:55.475Z,101907.85
2023-05-24T06:45:29.809Z,101911.23
2023-05-24T06:48:04.240Z,101908.77
2023-05-24T06:50:24.917Z,101905.38
2023-05-24T06:52:58.860Z,101908.09
2023-05-24T06:55:18.998Z,101905.06
2023-05-24T06:57:47.678Z,101906.14
2023-05-24T07:00:17.241Z,101906.98
2023-05-24T07:02:55.475Z,101904.45
2023-05-24T07:05:27.390Z,101901.77
2023-05-24T07:08:03.091Z,101894.66
2023-05-24T07:10:30.443Z,101894.44
2023-05-24T07:13:05.256Z,101889.61
2023-05-24T07:15:39.477Z,101885.67
2023-05-24T07:18:10.885Z,101882.29
2023-05-24T07:20:50.791Z,101878.48
2023-05-24T07:23:16.604Z,101883.19
2023-05-24T07:25:44.154Z,101880.61
2023-05-24T07:28:21.181Z,101882.83
2023-05-24T07:30:56.244Z,101882.13
2023-05-24T07:33:29.436Z,101885.62
2023-05-24T07:36:06.010Z,101886.42
2023-05-24T07:38:32.948Z,101887.59
2023-05-24T07:41:10.427Z,101886.48
2023-05-24T07:43:44.658Z,101886.20
2023-05-24T07:46:18.707Z,101884.48
2023-05-24T07:48:55.749Z,101885.85
2023-05-24T07:51:23.718Z,101883.15
2023-05-24T07:53:57.399Z,101880.23
2023-05-24T07:56:31.376Z,101877.67
2023-05-24T07:59:00.541Z,101879.89
2023-05-24T08:01:24.668Z,101880.69
2023-05-24T08:04:06.020Z,101884.52
2023-05-24T08:06:40.214Z,101891.23
2023-05-24T08:09:13.499Z,101891.46
2023-05-24T08:11:47.512Z,101889.40
2023-05-24T08:14:11.610Z,101887.72
2023-05-24T08:16:46.186Z,101882.67
2023-05-24T08:19:12.798Z,101880.64
2023-05-24T08:21:43.144Z,101878.23
2023-05-24T08:24:03.662Z,101876.39
2023-05-24T08:26:37.529Z,101876.13
2023-05-24T08:29:12.168Z,101877.28
2023-05-24T08:31:39.984Z,101876.04
2023-05-24T08:34:13.946Z,101880.08
2023-05-24T08:36:48.326Z,101878.64
2023-05-24T08:39:23.895Z,101880.73
2023-05-24T08:42:07.293Z,101880.65
2023-05-24T08:44:34.847Z,101886.77
2023-05-24T08:47:02.589Z,101889.65
2023-05-24T08:49:33.815Z,101886.37
2023-05-24T08:52:10.479Z,101892.46
2023-05-24T08:54:36.958Z,101888.70
2023-05-24T08:57:14.037Z,101887.08
2023-05-24T08:59:47.944Z,101886.00
2023-05-24T09:02:17.939Z,101888.06
2023-05-24T09:04:55.932Z,101887.84
2023-05-24T09:07:21.949Z,101885.78
2023-05-24T09:09:59.132Z,101881.77
2023-05-24T09:12:39.088Z,101880.76
2023-05-24T09:15:17.008Z,101877.15
2023-05-24T09:17:43.104Z,101877.13
2023-05-24T09:20:17.773Z,101879.83
2023-05-24T09:22:54.380Z,101880.46
2023-05-24T09:25:31.250Z,101877.41
2023-05-24T09:28:10.867Z,101876.45
2023-05-24T09:30:46.464Z,101881.23
2023-05-24T09:33:10.741Z,101882.14
2023-05-24T09:35:34.368Z,101881.61
2023-05-24T09:38:02.595Z,101884.60
2023-05-24T09:40:36.670Z,101884.80
2023-05-24T09:43:14.870Z,101884.29
2023-05-24T09:45:52.385Z,101882.59
2023-05-24T09:48:27.613Z,101878.09
2023-05-24T09:51:12.838Z,101878.54
2023-05-24T09:53:37.003Z,101881.48
2023-05-24T09:55:58.858Z,101881.90
2023-05-24T09:58:23.659Z,101882.55
2023-05-24T10:00:52.746Z,101882.83
2023-05-24T10:03:28.725Z,101880.58
2023-05-24T10:05:58.682Z,101878.73
2023-05-24T10:08:33.250Z,101878.27
2023-05-24T10:11:08.908Z,101873.40
2023-05-24T10:13:40.159Z,101873.66
2023-05-24T10:16:08.862Z,101870.16
2023-05-24T10:18:37.644Z,101868.29
2023-05-24T10:21:14.338Z,101870.10
2023-05-24T10:23:47.551Z,101867.55
2023-05-24T10:26:15.979Z,101867.50
2023-05-24T10:28:56.071Z,101869.14
2023-05-24T10:31:19.281Z,101871.30
2023-05-24T10:34:01.407Z,101869.19
2023-05-24T10:36:43.161Z,101873.24
2023-05-24T10:39:18.869Z,101873.08
2023-05-24T10:41:52.169Z,101874.72
2023-05-24T10:44:25.333Z,101869.84
2023-05-24T10:47:18.122Z,101872.52
2023-05-24T10:50:00.478Z,101874.67
2023-05-24T10:52:39.618Z,101869.02
2023-05-24T10:55:17.051Z,101870.64
2023-05-24T10:57:41.777Z,101865.42
2023-05-24T11:00:34.710Z,101863.34
2023-05-24T11:03:10.001Z,101864.97
2023-05-24T11:05:36.010Z,101866.41
2023-05-24T11:08:12.945Z,101867.85
2023-05-24T11:10:47.712Z,101871.94
2023-05-24T11:13:22.309Z,101871.03
2023-05-24T11:15:59.672Z,101873.35
2023-05-24T11:18:29.213Z,101874.77
2023-05-24T11:21:04.988Z,101874.43
2023-05-24T11:23:39.809Z,101876.73
2023-05-24T11:26:03.519Z,101877.10
2023-05-24T11:28:40.164Z,101875.73
2023-05-24T11:31:17.188Z,101873.12
2023-05-24T11:33:51.052Z,101871.92
2023-05-24T11:36:28.120Z,101867.73
2023-05-24T11:39:02.657Z,101869.70
2023-05-24T11:41:38.217Z,101871.11
2023-05-24T11:44:14.850Z,101872.66
2023-05-24T11:46:51.340Z,101873.73
2023-05-24T11:49:23.281Z,101868.98
2023-05-24T11:52:02.466Z,101868.09
2023-05-24T11:54:38.851Z,101862.98
2023-05-24T11:57:18.001Z,101860.05
2023-05-24T11:59:45.325Z,101854.20
2023-05-24T12:02:12.400Z,101857.39
2023-05-24T12:04:46.345Z,101856.66
2023-05-24T12:07:21.195Z,101860.79
2023-05-24T12:09:58.664Z,101856.81
2023-05-24T12:12:42.490Z,101857.25
2023-05-24T12:15:23.482Z,101858.54
2023-05-24T12:17:52.797Z,101859.25
2023-05-24T12:20:30.869Z,101857.70
2023-05-24T12:22:59.492Z,101863.36
2023-05-24T12:25:28.293Z,101867.94
2023-05-24T12:28:03.422Z,101868.66
2023-05-24T12:30:44.325Z,101862.46
2023-05-24T12:33:21.927Z,101858.10
2023-05-24T12:35:57.438Z,101855.50
2023-05-24T12:38:28.548Z,101855.41
2023-05-24T12:41:12.995Z,101856.39
2023-05-24T12:43:49.135Z,101857.50
2023-05-24T12:46:23.363Z,101862.09
2023-05-24T12:48:57.416Z,101863.25
2023-05-24T12:51:31.380Z,101868.46
2023-05-24T12:54:06.551Z,101866.52
2023-05-24T12:56:29.597Z,101866.37
2023-05-24T12:59:04.347Z,101869.04
2023-05-24T13:01:29.735Z,101871.13
2023-05-24T13:04:04.714Z,101875.21
2023-05-24T13:06:32.898Z,101876.44
2023-05-24T13:09:07.544Z,101874.29
2023-05-24T13:11:41.155Z,101876.21
2023-05-24T13:14:09.056Z,101878.65
2023-05-24T13:16:45.182Z,101876.45
2023-05-24T13:19:19.509Z,101878.64
2023-05-24T13:21:47.946Z,101880.52
2023-05-24T13:24:22.711Z,101881.69
2023-05-24T13:26:57.618Z,101876.89
2023-05-24T13:29:39.428Z,101877.23
2023-05-24T13:32:13.651Z,101877.70
2023-05-24T13:34:38.320Z,101875.64
2023-05-24T13:37:12.096Z,101879.80
2023-05-24T13:39:48.157Z,101883.90
2023-05-24T13:42:24.229Z,101887.85
2023-05-24T13:44:48.719Z,101889.45
2023-05-24T13:47:35.345Z,101893.35
2023-05-24T13:50:16.792Z,101895.45
2023-05-24T13:52:42.609Z,101896.64
2023-05-24T13:55:06.723Z,101900.80
2023-05-24T13:57:39.393Z,101905.85
2023-05-24T14:00:19.231Z,101908.52
2023-05-24T14:02:42.033Z,101906.78
2023-05-24T14:05:26.565Z,101904.75
2023-05-24T14:07:56.722Z,101907.62
2023-05-24T14:10:31.318Z,101905.35
2023-05-24T14:13:26.653Z,101904.71
2023-05-24T14:16:02.466Z,101903.11
2023-05-24T14:18:30.593Z,101903.15
2023-05-24T14:21:06.079Z,101904.37
2023-05-24T14:23:34.589Z,101902.38
2023-05-24T14:25:53.909Z,101899.63
2023-05-24T14:28:16.417Z,101902.63
2023-05-24T14:30:50.915Z,101903.69
2023-05-24T14:33:27.752Z,101904.17
2023-05-24T14:35:44.687Z,101902.86
2023-05-24T14:38:06.793Z,101902.31
2023-05-24T14:40:43.464Z,101902.62
2023-05-24T14:43:18.931Z,101903.81
2023-05-24T14:45:43.082Z,101908.31
2023-05-24T14:48:13.482Z,101907.35
2023-05-24T14:50:43.010Z,101910.59
2023-05-24T14:53:18.368Z,101909.89
2023-05-24T14:55:43.099Z,101909.66
2023-05-24T14:58:03.491Z,101907.39
2023-05-24T15:00:37.589Z,101910.63
2023-05-24T15:03:13.785Z,101914.46
2023-05-24T15:05:40.338Z,101909.95
2023-05-24T15:08:05.845Z,101912.87
2023-05-24T15:10:31.298Z,101909.70
2023-05-24T15:12:58.908Z,101907.51
2023-05-24T15:15:35.599Z,101907.10
2023-05-24T15:18:00.571Z,101903.60
2023-05-24T15:20:35.718Z,101899.17
2023-05-24T15:23:04.785Z,101899.14
2023-05-24T15:25:26.630Z,101904.74
2023-05-24T15:27:47.391Z,101901.27
2023-05-24T15:30:25.788Z,101900.49
2023-05-24T15:32:51.090Z,101902.81
2023-05-24T15:35:21.728Z,101906.82
2023-05-24T15:37:57.122Z,101914.86
2023-05-24T15:40:25.176Z,101910.10
2023-05-24T15:42:54.005Z,101905.84
2023-05-24T15:45:28.472Z,101905.10
2023-05-24T15:47:54.225Z,101901.12
2023-05-24T15:50:20.261Z,101897.61
2023-05-24T15:53:00.453Z,101900.38
2023-05-24T15:55:20.124Z,101895.57
2023-05-24T15:57:54.953Z,101895.69
2023-05-24T16:00:30.298Z,101890.48
2023-05-24T16:02:51.675Z,101889.27
2023-05-24T16:05:21.821Z,101880.91
2023-05-24T16:07:48.210Z,101881.60
2023-05-24T16:10:17.114Z,101880.48
2023-05-24T16:12:40.767Z,101877.40
2023-05-24T16:15:09.990Z,101868.05
2023-05-24T16:17:36.969Z,101860.39
2023-05-24T16:20:04.780Z,101860.19
2023-05-24T16:22:40.855Z,101855.88
2023-05-24T16:24:59.975Z,101860.77
2023-05-24T16:27:34.367Z,101853.71
2023-05-24T16:30:08.447Z,101852.40
2023-05-24T16:32:34.695Z,101853.38
2023-05-24T16:35:12.042Z,101853.80
2023-05-24T16:37:44.467Z,101851.41
2023-05-24T16:40:13.163Z,101851.98
2023-05-24T16:42:49.627Z,101852.02
2023-05-24T16:45:16.569Z,101853.09
2023-05-24T16:47:45.785Z,101849.12
2023-05-24T16:50:07.071Z,101844.13
2023-05-24T16:52:41.125Z,101843.29
2023-05-24T16:55:07.838Z,101836.98
2023-05-24T16:57:43.045Z,101838.35
2023-05-24T17:00:05.163Z,101833.55
2023-05-24T17:02:41.274Z,101830.98
2023-05-24T17:05:16.315Z,101829.02
2023-05-24T17:07:37.117Z,101828.36
2023-05-24T17:10:03.647Z,101827.92
2023-05-24T17:12:38.052Z,101831.52
2023-05-24T17:15:14.793Z,101830.79
2023-05-24T17:17:48.405Z,101825.82
2023-05-24T17:20:22.423Z,101825.11
2023-05-24T17:22:46.853Z,101824.90
2023-05-24T17:25:20.474Z,101829.35
2023-05-24T17:27:55.030Z,101828.13
2023-05-24T17:30:18.774Z,101824.70
2023-05-24T17:32:52.609Z,101826.88
2023-05-24T17:35:22.845Z,101831.20
2023-05-24T17:37:57.029Z,101828.94
2023-05-24T17:40:30.502Z,101822.20
2023-05-24T17:43:03.935Z,101819.62
2023-05-24T17:45:27.310Z,101813.02
2023-05-24T17:47:51.586Z,101816.62
2023-05-24T17:50:18.328Z,101820.86
2023-05-24T17:52:49.941Z,101817.62
2023-05-24T17:55:12.639Z,101824.55
2023-05-24T17:57:36.377Z,101827.30
2023-05-24T18:00:04.777Z,101823.80
2023-05-24T18:02:25.398Z,101828.86
2023-05-24T18:04:53.700Z,101824.70
2023-05-24T18:07:12.133Z,101827.60
2023-05-24T18:09:38.546Z,101827.73
2023-05-24T18:12:10.159Z,101824.20
2023-05-24T18:14:45.401Z,101823.59
2023-05-24T18:17:03.856Z,101816.07
2023-05-24T18:19:32.814Z,101811.95
2023-05-24T18:21:52.208Z,101818.73
2023-05-24T18:24:20.872Z,101818.09
2023-05-24T18:26:48.272Z,101817.11
2023-05-24T18:29:21.962Z,101817.69
2023-05-24T18:31:53.594Z,101816.39
2023-05-24T18:34:18.953Z,101822.05
2023-05-24T18:36:40.301Z,101825.89
2023-05-24T18:39:12.908Z,101831.35
2023-05-24T18:41:45.160Z,101830.77
2023-05-24T18:44:17.796Z,101829.69
2023-05-24T18:46:44.614Z,101823.40
2023-05-24T18:49:13.300Z,101826.16
2023-05-24T18:51:41.119Z,101825.45
2023-05-24T18:53:59.081Z,101821.61
2023-05-24T18:56:32.320Z,101828.15
2023-05-24T18:59:03.033Z,101823.57
2023-05-24T19:01:30.619Z,101824.15
2023-05-24T19:03:50.252Z,101826.27
2023-05-24T19:06:15.891Z,101826.02
2023-05-24T19:08:42.886Z,101817.86
2023-05-24T19:11:12.186Z,101818.43
2023-05-24T19:13:40.979Z,101819.23
2023-05-24T19:16:07.108Z,101819.89
2023-05-24T19:18:34.109Z,101817.76
2023-05-24T19:21:06.497Z,101812.35
2023-05-24T19:23:36.901Z,101807.35
2023-05-24T19:26:10.354Z,101807.40
2023-05-24T19:28:49.082Z,101804.55
2023-05-24T19:31:23.080Z,101800.28
2023-05-24T19:34:00.062Z,101798.83
2023-05-24T19:36:37.143Z,101798.20
2023-05-24T19:39:11.332Z,101800.65
2023-05-24T19:41:47.081Z,101800.50
2023-05-24T19:44:08.758Z,101808.95
2023-05-24T19:46:42.716Z,101802.02
2023-05-24T19:49:18.171Z,101802.48
2023-05-24T19:51:39.085Z,101803.83
2023-05-24T19:54:06.560Z,101805.79
2023-05-24T19:56:42.138Z,101811.56
2023-05-24T19:59:08.676Z,101807.65
2023-05-24T20:01:44.255Z,101802.20
2023-05-24T20:04:19.299Z,101805.48
2023-05-24T20:06:56.338Z,101809.23
2023-05-24T20:09:32.140Z,101808.29
2023-05-24T20:12:01.353Z,101802.77
2023-05-24T20:14:29.312Z,101798.53
2023-05-24T20:17:05.284Z,101797.38
2023-05-24T20:19:33.567Z,101797.91
2023-05-24T20:22:08.330Z,101795.97
2023-05-24T20:24:28.445Z,101787.60
2023-05-24T20:26:55.605Z,101785.83
2023-05-24T20:29:23.171Z,101793.23
2023-05-24T20:31:57.896Z,101788.34
2023-05-24T20:34:28.926Z,101786.20
2023-05-24T20:37:03.927Z,101769.84
2023-05-24T20:39:40.003Z,101775.23
2023-05-24T20:42:12.252Z,101778.58
2023-05-24T20:44:31.290Z,101784.89
2023-05-24T20:47:06.307Z,101787.90
2023-05-24T20:49:42.573Z,101789.27
2023-05-24T20:52:05.880Z,101781.36
2023-05-24T20:54:28.640Z,101782.14
2023-05-24T20:56:55.110Z,101776.02
2023-05-24T20:59:16.332Z,101781.11
2023-05-24T21:01:48.679Z,101775.38
2023-05-24T21:04:22.600Z,101773.87
2023-05-24T21:06:49.215Z,101779.64
2023-05-24T21:09:24.604Z,101782.20
2023-05-24T21:11:58.303Z,101787.15
2023-05-24T21:14:25.169Z,101785.91
2023-05-24T21:16:42.546Z,101789.58
2023-05-24T21:19:09.843Z,101784.23
2023-05-24T21:21:44.639Z,101787.13
2023-05-24T21:24:17.731Z,101786.80
2023-05-24T21:26:48.716Z,101785.45
2023-05-24T21:29:14.217Z,101783.55
2023-05-24T21:31:42.866Z,101782.76
2023-05-24T21:34:05.485Z,101783.73
2023-05-24T21:36:36.145Z,101786.80
2023-05-24T21:39:09.628Z,101791.83
2023-05-24T21:41:44.177Z,101787.17
2023-05-24T21:44:19.808Z,101786.55
2023-05-24T21:46:47.876Z,101778.41
2023-05-24T21:49:18.365Z,101781.91
2023-05-24T21:51:52.098Z,101783.19
2023-05-24T21:54:21.107Z,101791.61
2023-05-24T21:56:41.621Z,101792.59
2023-05-24T21:59:11.217Z,101788.66
2023-05-24T22:01:44.968Z,101787.16
2023-05-24T22:04:06.203Z,101787.26
2023-05-24T22:06:31.482Z,101789.27
2023-05-24T22:09:07.417Z,101792.83
2023-05-24T22:11:24.728Z,101794.62
2023-05-24T22:13:56.957Z,101794.16
2023-05-24T22:16:23.116Z,101789.14
2023-05-24T22:18:58.278Z,101781.43
2023-05-24T22:21:34.131Z,101778.92
2023-05-24T22:23:55.817Z,101778.69
2023-05-24T22:26:25.446Z,101785.61
2023-05-24T22:29:05.218Z,101780.94
2023-05-24T22:31:34.381Z,101785.34
2023-05-24T22:34:03.960Z,101779.45
2023-05-24T22:36:43.404Z,101776.27
2023-05-24T22:39:07.470Z,101778.21
2023-05-24T22:41:39.760Z,101783.73
2023-05-24T22:44:15.379Z,101781.46
2023-05-24T22:46:49.366Z,101778.96
2023-05-24T22:49:14.355Z,101775.71
2023-05-24T22:51:45.241Z,101774.61
2023-05-24T22:54:19.256Z,101774.35
2023-05-24T22:56:53.244Z,101769.66
2023-05-24T22:59:21.255Z,101773.46
2023-05-24T23:01:42.384Z,101766.21
2023-05-24T23:04:20.639Z,101773.14
2023-05-24T23:06:47.212Z,101765.85
2023-05-24T23:09:13.885Z,101760.31
2023-05-24T23:11:47.261Z,101755.23
2023-05-24T23:14:21.629Z,101748.77
2023-05-24T23:16:47.301Z,101748.23
2023-05-24T23:19:19.311Z,101748.56
2023-05-24T23:21:48.672Z,101748.85
2023-05-24T23:24:23.409Z,101746.85
2023-05-24T23:26:44.308Z,101747.68
2023-05-24T23:29:19.604Z,101741.84
2023-05-24T23:31:48.731Z,101738.24
2023-05-24T23:34:23.387Z,101732.99
2023-05-24T23:36:46.929Z,101724.80
2023-05-24T23:39:12.097Z,101720.76
2023-05-24T23:41:48.008Z,101709.44
2023-05-24T23:44:14.929Z,101703.94
2023-05-24T23:46:43.143Z,101704.09
2023-05-24T23:49:08.982Z,101700.02
2023-05-24T23:51:45.095Z,101701.06
2023-05-24T23:54:12.381Z,101701.36
2023-05-24T23:56:47.634Z,101696.32
2023-05-24T23:59:22.108Z,101687.72
